Time;durP1;ratioP1;P1;durP2;ratioP2;P2;SDS_P1;SDS_P2;PMS_P1;PMS_P2;Temp;Humidity;BMP_temperature;BMP_pressure;BME280_temperature;BME280_humidity;BME280_pressure;Samples;Min_cycle;Max_cycle;Signal;HPM_P1;HPM_P2
2021/03/09 00:01:03;;;;;;;23.58;17.48;;;4.60;89.80;;;;;;5110897;28;20047;-66
2021/03/09 00:03:28;;;;;;;23.88;18.25;;;4.60;89.90;;;;;;5113218;28;20080;-66
2021/03/09 00:05:54;;;;;;;24.48;19.00;;;4.60;89.80;;;;;;5112728;28;20124;-65
2021/03/09 00:08:20;;;;;;;24.85;17.63;;;4.60;89.90;;;;;;5109746;28;20035;-65
2021/03/09 00:10:45;;;;;;;25.25;19.33;;;4.60;90.00;;;;;;5112706;28;20405;-65
2021/03/09 00:13:11;;;;;;;25.77;19.13;;;4.60;90.20;;;;;;5110777;28;20126;-65
2021/03/09 00:15:36;;;;;;;25.77;19.27;;;4.60;89.90;;;;;;5112141;28;20044;-65
2021/03/09 00:18:02;;;;;;;26.67;20.27;;;4.60;90.10;;;;;;5113186;28;20105;-66
2021/03/09 00:20:28;;;;;;;26.17;20.10;;;4.50;90.20;;;;;;5114431;28;20484;-65
2021/03/09 00:22:53;;;;;;;26.55;19.85;;;4.50;90.30;;;;;;5113047;28;20120;-65
2021/03/09 00:25:19;;;;;;;22.50;18.13;;;4.60;90.20;;;;;;5113587;28;20051;-65
2021/03/09 00:27:45;;;;;;;27.33;20.92;;;4.60;90.20;;;;;;5113565;28;20039;-65
2021/03/09 00:30:12;;;;;;;28.00;21.83;;;4.60;90.20;;;;;;5113276;28;20094;-66
2021/03/09 00:32:37;;;;;;;26.70;20.60;;;4.50;90.20;;;;;;5113831;28;20040;-66
2021/03/09 00:35:03;;;;;;;28.98;22.35;;;4.50;90.40;;;;;;5113831;28;20077;-65
2021/03/09 00:37:29;;;;;;;31.25;22.88;;;4.50;90.50;;;;;;5103537;28;20123;-66
2021/03/09 00:39:54;;;;;;;27.58;20.75;;;4.50;90.50;;;;;;5113368;28;20114;-66
2021/03/09 00:42:21;;;;;;;30.25;22.58;;;4.50;90.30;;;;;;5109982;28;20051;-65
2021/03/09 00:44:46;;;;;;;28.92;21.67;;;4.50;90.60;;;;;;5111744;28;20114;-66
2021/03/09 00:47:12;;;;;;;29.90;21.60;;;4.40;90.70;;;;;;5113375;28;20123;-66
2021/03/09 00:49:38;;;;;;;28.90;21.10;;;4.40;90.40;;;;;;5113751;28;20476;-66
2021/03/09 00:52:04;;;;;;;31.55;22.42;;;4.40;90.90;;;;;;5113189;27;20067;-66
2021/03/09 00:54:30;;;;;;;30.08;22.20;;;4.40;90.60;;;;;;5111962;28;20409;-66
2021/03/09 00:56:55;;;;;;;29.25;21.58;;;4.50;90.50;;;;;;5113959;28;20052;-66
2021/03/09 00:59:21;;;;;;;31.63;22.15;;;4.40;90.50;;;;;;5112222;28;20071;-66
2021/03/09 01:01:47;;;;;;;29.33;22.27;;;4.50;90.70;;;;;;5110951;28;20096;-64
2021/03/09 01:04:12;;;;;;;29.23;21.58;;;4.50;90.70;;;;;;5114035;28;20044;-63
2021/03/09 01:06:38;;;;;;;28.65;20.85;;;4.40;90.80;;;;;;5108897;28;20076;-64
2021/03/09 01:09:03;;;;;;;27.17;20.05;;;4.50;90.30;;;;;;5109980;28;20043;-64
2021/03/09 01:11:29;;;;;;;32.35;22.70;;;4.50;90.40;;;;;;5112875;28;20043;-63
2021/03/09 01:13:55;;;;;;;28.10;21.27;;;4.50;90.60;;;;;;5112946;28;20671;-63
2021/03/09 01:16:21;;;;;;;30.02;20.98;;;4.50;90.30;;;;;;5113443;28;20028;-64
2021/03/09 01:18:46;;;;;;;30.67;21.10;;;4.50;90.20;;;;;;5114078;28;20191;-64
2021/03/09 01:21:12;;;;;;;28.90;20.42;;;4.50;90.40;;;;;;5101821;28;20032;-64
2021/03/09 01:23:37;;;;;;;29.27;21.52;;;4.50;90.40;;;;;;5098024;28;20550;-64
2021/03/09 01:26:03;;;;;;;32.15;23.92;;;4.50;90.30;;;;;;5113114;28;20085;-63
2021/03/09 01:28:29;;;;;;;29.15;20.92;;;4.50;90.50;;;;;;5111147;28;20161;-63
2021/03/09 01:30:54;;;;;;;30.17;22.42;;;4.50;90.20;;;;;;5112088;28;20046;-63
2021/03/09 01:33:20;;;;;;;28.92;22.45;;;4.50;90.50;;;;;;5112943;28;20043;-63
2021/03/09 01:35:46;;;;;;;31.63;23.10;;;4.50;90.60;;;;;;5108407;28;20479;-64
2021/03/09 01:38:11;;;;;;;32.45;22.08;;;4.50;90.50;;;;;;5111101;28;20496;-64
2021/03/09 01:40:37;;;;;;;30.63;21.60;;;4.50;90.50;;;;;;5109581;28;20085;-64
2021/03/09 01:43:04;;;;;;;32.22;23.52;;;4.50;90.60;;;;;;5109427;28;20061;-63
2021/03/09 01:45:30;;;;;;;33.22;23.10;;;4.60;90.70;;;;;;5110467;28;20494;-66
2021/03/09 01:48:00;;;;;;;28.90;21.02;;;4.60;90.70;;;;;;5111376;28;20146;-63
2021/03/09 01:50:26;;;;;;;31.10;22.05;;;4.60;90.70;;;;;;5112018;28;20084;-64
2021/03/09 01:52:52;;;;;;;28.98;20.98;;;4.50;90.90;;;;;;5102787;28;20047;-64
2021/03/09 01:55:19;;;;;;;27.10;21.02;;;4.50;90.70;;;;;;5111041;28;20047;-63
2021/03/09 01:57:45;;;;;;;28.70;20.65;;;4.50;90.80;;;;;;5110879;28;20109;-63
2021/03/09 02:00:11;;;;;;;25.52;19.20;;;4.60;90.80;;;;;;5111153;28;20044;-63
2021/03/09 02:02:37;;;;;;;26.92;20.75;;;4.60;90.50;;;;;;5109634;28;20035;-63
2021/03/09 02:05:12;;;;;;;27.63;19.80;;;4.60;90.50;;;;;;5105318;28;20909;-63
2021/03/09 02:07:38;;;;;;;29.42;20.90;;;4.60;90.70;;;;;;5107935;28;20096;-63
2021/03/09 02:12:58;;;;;;;25.13;19.90;;;4.50;91.00;;;;;;5050653;28;20049;-63
2021/03/09 02:15:35;;;;;;;24.95;19.08;;;4.50;90.90;;;;;;5051691;28;20047;-62
2021/03/09 02:18:11;;;;;;;23.08;17.65;;;4.50;91.00;;;;;;5050822;28;20048;-63
2021/03/09 02:21:11;;;;;;;24.17;17.58;;;4.50;90.80;;;;;;5050981;28;20175;-63
2021/03/09 02:24:00;;;;;;;24.17;17.80;;;4.60;90.70;;;;;;5052114;28;20041;-63
2021/03/09 02:26:55;;;;;;;24.60;18.02;;;4.60;90.70;;;;;;5056907;28;20086;-63
2021/03/09 02:30:03;;;;;;;26.92;16.65;;;4.60;90.90;;;;;;5037083;28;20122;-63
2021/03/09 02:32:33;;;;;;;20.88;15.50;;;4.60;90.90;;;;;;4971213;28;20053;-63
2021/03/09 02:35:01;;;;;;;22.90;17.80;;;4.60;90.30;;;;;;5051432;28;20123;-63
2021/03/09 02:37:33;;;;;;;21.75;16.73;;;4.60;91.10;;;;;;5051182;28;20036;-63
2021/03/09 02:40:03;;;;;;;21.63;17.08;;;4.60;90.60;;;;;;5050363;28;20037;-63
2021/03/09 02:42:30;;;;;;;19.75;15.10;;;4.60;91.00;;;;;;5046915;28;20040;-63
2021/03/09 02:44:59;;;;;;;21.23;16.30;;;4.50;91.00;;;;;;5052773;28;20041;-63
2021/03/09 02:47:26;;;;;;;22.45;15.93;;;4.60;91.00;;;;;;5050534;28;20139;-63
2021/03/09 02:49:54;;;;;;;20.42;15.18;;;4.60;91.00;;;;;;5051041;28;20033;-63
2021/03/09 02:52:22;;;;;;;20.33;15.20;;;4.60;90.60;;;;;;5052354;28;20047;-63
2021/03/09 02:54:50;;;;;;;20.80;16.02;;;4.60;90.90;;;;;;5051860;28;20434;-63
2021/03/09 02:57:17;;;;;;;18.95;15.77;;;4.60;90.80;;;;;;5046587;28;20107;-63
2021/03/09 02:59:44;;;;;;;18.27;14.32;;;4.60;90.90;;;;;;5051234;28;20064;-63
2021/03/09 03:02:12;;;;;;;21.92;16.00;;;4.60;90.70;;;;;;5050514;28;20044;-63
2021/03/09 03:04:42;;;;;;;22.48;16.05;;;4.60;90.50;;;;;;5052535;28;20045;-63
2021/03/09 03:07:10;;;;;;;21.08;16.27;;;4.60;91.20;;;;;;5050196;28;20462;-63
2021/03/09 03:09:37;;;;;;;20.85;15.63;;;4.60;91.40;;;;;;5051453;28;20116;-63
2021/03/09 03:12:03;;;;;;;19.85;15.23;;;4.60;91.00;;;;;;5047438;28;20063;-63
2021/03/09 03:14:31;;;;;;;19.17;15.57;;;4.60;91.10;;;;;;5050206;28;20059;-63
2021/03/09 03:17:01;;;;;;;20.60;16.20;;;4.70;90.70;;;;;;5048467;28;20029;-63
2021/03/09 03:19:28;;;;;;;18.92;15.15;;;4.70;90.80;;;;;;5050702;28;20105;-63
2021/03/09 03:21:54;;;;;;;19.63;15.57;;;4.70;90.90;;;;;;5036090;28;20040;-63
2021/03/09 03:24:20;;;;;;;19.63;15.30;;;4.70;90.50;;;;;;5050454;28;20048;-63
2021/03/09 03:26:47;;;;;;;20.27;15.43;;;4.80;90.10;;;;;;5051464;28;20041;-63
2021/03/09 03:29:14;;;;;;;19.23;14.63;;;4.80;90.10;;;;;;5053047;28;20045;-63
2021/03/09 03:31:40;;;;;;;20.13;16.08;;;4.70;90.40;;;;;;5057549;28;20064;-63
2021/03/09 03:34:06;;;;;;;18.58;13.98;;;4.70;90.70;;;;;;5058598;28;20552;-63
2021/03/09 03:36:34;;;;;;;20.08;16.10;;;4.70;90.40;;;;;;5050508;28;20555;-63
2021/03/09 03:39:00;;;;;;;20.80;15.50;;;4.70;90.80;;;;;;5050249;28;20048;-63
2021/03/09 03:41:26;;;;;;;21.92;15.85;;;4.70;90.90;;;;;;5063117;28;20044;-63
2021/03/09 03:43:52;;;;;;;20.30;15.52;;;4.70;91.30;;;;;;5049140;28;20379;-63
2021/03/09 03:46:17;;;;;;;22.33;15.82;;;4.70;91.40;;;;;;5050353;28;20041;-63
2021/03/09 03:48:46;;;;;;;22.02;16.67;;;4.70;91.20;;;;;;5054268;28;20037;-63
2021/03/09 03:51:14;;;;;;;18.50;15.48;;;4.70;91.20;;;;;;5051174;28;20463;-63
2021/03/09 03:53:50;;;;;;;19.60;15.90;;;4.70;91.10;;;;;;5050023;28;20104;-63
2021/03/09 03:56:30;;;;;;;17.05;13.73;;;4.70;91.00;;;;;;5048204;28;20033;-63
2021/03/09 03:59:18;;;;;;;20.63;16.55;;;4.70;91.20;;;;;;5049977;28;20544;-63
2021/03/09 04:01:44;;;;;;;19.50;14.60;;;4.70;91.50;;;;;;5032138;28;20063;-63
2021/03/09 04:04:11;;;;;;;19.45;15.15;;;4.70;91.10;;;;;;5050002;28;20044;-63
2021/03/09 04:06:42;;;;;;;20.40;15.45;;;4.70;91.40;;;;;;5046172;28;20036;-63
2021/03/09 04:09:09;;;;;;;18.30;14.70;;;4.70;91.50;;;;;;5054484;28;20065;-63
2021/03/09 04:11:36;;;;;;;17.70;13.70;;;4.70;91.60;;;;;;5047544;28;20080;-63
2021/03/09 04:14:02;;;;;;;22.05;15.80;;;4.70;91.10;;;;;;5049983;28;20458;-63
2021/03/09 04:16:29;;;;;;;22.00;15.00;;;4.70;91.70;;;;;;5055960;28;20044;-63
2021/03/09 04:18:56;;;;;;;21.85;15.95;;;4.70;91.50;;;;;;5056987;28;20116;-63
2021/03/09 04:21:24;;;;;;;21.65;17.05;;;4.70;91.30;;;;;;5053507;28;20060;-63
2021/03/09 04:23:50;;;;;;;19.50;15.40;;;4.70;91.60;;;;;;5050561;28;20071;-63
2021/03/09 04:26:17;;;;;;;20.33;15.82;;;4.70;91.30;;;;;;5063919;28;20045;-63
2021/03/09 04:28:43;;;;;;;20.52;15.68;;;4.70;91.40;;;;;;5059100;28;20040;-63
2021/03/09 04:31:10;;;;;;;24.33;17.35;;;4.70;91.20;;;;;;5052598;28;20033;-63
2021/03/09 04:33:36;;;;;;;21.40;16.50;;;4.80;91.50;;;;;;5052507;28;20056;-63
2021/03/09 04:36:04;;;;;;;20.48;14.05;;;4.80;91.30;;;;;;5060566;28;20033;-63
2021/03/09 04:38:30;;;;;;;20.80;16.02;;;4.80;91.00;;;;;;5062069;28;20036;-63
2021/03/09 04:40:57;;;;;;;19.92;16.23;;;4.80;90.90;;;;;;5057638;28;20559;-63
2021/03/09 04:43:23;;;;;;;22.55;16.67;;;4.80;90.80;;;;;;5065065;28;20478;-63
2021/03/09 04:45:48;;;;;;;23.33;17.92;;;4.80;91.60;;;;;;5049136;28;20128;-63
2021/03/09 04:48:14;;;;;;;24.40;16.75;;;4.80;91.10;;;;;;5052954;28;20462;-63
2021/03/09 04:50:43;;;;;;;20.05;16.00;;;4.80;90.60;;;;;;5051019;28;20033;-63
2021/03/09 04:53:08;;;;;;;21.42;16.77;;;4.80;91.20;;;;;;5053579;28;20056;-63
2021/03/09 04:55:34;;;;;;;20.27;16.10;;;4.80;91.30;;;;;;5035677;28;20077;-63
2021/03/09 04:58:01;;;;;;;18.23;15.38;;;4.90;90.40;;;;;;5047735;28;20029;-63
2021/03/09 05:00:28;;;;;;;24.60;18.17;;;4.90;90.40;;;;;;5053400;28;20433;-63
2021/03/09 05:02:54;;;;;;;21.13;16.80;;;4.90;91.60;;;;;;5062558;28;20048;-63
2021/03/09 05:05:21;;;;;;;21.60;16.60;;;4.90;91.20;;;;;;5062210;28;20083;-63
2021/03/09 05:07:47;;;;;;;22.85;17.92;;;4.90;91.60;;;;;;5052307;28;20045;-63
2021/03/09 05:10:15;;;;;;;20.55;17.08;;;4.90;91.80;;;;;;5053150;28;20099;-63
2021/03/09 05:12:42;;;;;;;23.60;17.50;;;4.80;91.60;;;;;;5052435;28;20056;-63
2021/03/09 05:15:09;;;;;;;20.55;16.83;;;4.80;91.60;;;;;;5052755;28;20045;-63
2021/03/09 05:17:35;;;;;;;20.25;16.02;;;4.80;91.00;;;;;;5042092;28;20036;-63
2021/03/09 05:20:00;;;;;;;23.48;17.38;;;4.90;90.70;;;;;;5052356;28;20039;-63
2021/03/09 05:22:26;;;;;;;25.42;18.73;;;4.90;91.20;;;;;;5052555;28;20488;-63
2021/03/09 05:24:52;;;;;;;24.02;18.52;;;4.90;91.40;;;;;;5068810;28;20110;-63
2021/03/09 05:27:18;;;;;;;27.17;18.85;;;4.90;91.90;;;;;;5052158;28;20112;-63
2021/03/09 05:29:43;;;;;;;25.88;19.33;;;4.90;91.80;;;;;;5064222;28;20111;-63
2021/03/09 05:32:09;;;;;;;26.73;19.00;;;4.90;92.00;;;;;;5055050;28;20409;-63
2021/03/09 05:34:34;;;;;;;26.05;18.55;;;4.90;92.30;;;;;;5035685;28;20069;-63
2021/03/09 05:37:00;;;;;;;26.40;19.92;;;4.90;92.10;;;;;;5052780;28;20470;-63
2021/03/09 05:39:26;;;;;;;26.52;19.25;;;4.90;92.10;;;;;;5051994;28;20410;-63
2021/03/09 05:41:52;;;;;;;25.00;19.75;;;4.90;91.90;;;;;;5051833;28;20048;-63
2021/03/09 05:44:17;;;;;;;25.25;19.85;;;4.90;91.70;;;;;;5054561;28;20041;-63
2021/03/09 05:46:44;;;;;;;28.55;20.73;;;4.90;91.50;;;;;;5047818;28;20037;-63
2021/03/09 05:49:10;;;;;;;22.50;19.08;;;5.00;91.70;;;;;;5053205;28;20115;-63
2021/03/09 05:51:36;;;;;;;27.25;20.17;;;5.00;91.90;;;;;;5051257;28;20117;-63
2021/03/09 05:54:02;;;;;;;28.58;21.15;;;5.00;92.20;;;;;;5057889;28;20077;-63
2021/03/09 05:56:28;;;;;;;28.38;22.63;;;5.00;92.20;;;;;;5049161;28;20044;-63
2021/03/09 05:58:53;;;;;;;27.20;22.23;;;5.00;92.10;;;;;;5054827;28;20033;-63
2021/03/09 06:01:19;;;;;;;26.98;20.20;;;5.00;92.10;;;;;;5053229;28;20163;-63
2021/03/09 06:03:46;;;;;;;28.35;21.38;;;5.00;92.20;;;;;;5054569;28;20508;-63
2021/03/09 06:06:12;;;;;;;26.00;20.88;;;5.00;92.10;;;;;;5034609;28;20029;-63
2021/03/09 06:08:39;;;;;;;29.65;20.70;;;5.00;91.80;;;;;;5055996;28;20087;-63
2021/03/09 06:11:18;;;;;;;26.92;20.10;;;5.00;91.70;;;;;;5051287;28;20056;-63
2021/03/09 06:13:46;;;;;;;26.83;20.50;;;5.00;92.20;;;;;;5051220;28;20044;-63
2021/03/09 06:16:12;;;;;;;29.83;21.20;;;5.10;92.20;;;;;;5051261;28;20037;-63
2021/03/09 06:18:50;;;;;;;26.75;20.25;;;5.10;92.10;;;;;;5031172;28;20051;-63
2021/03/09 06:21:15;;;;;;;25.73;19.95;;;5.10;92.30;;;;;;5050844;28;20064;-63
2021/03/09 06:23:43;;;;;;;28.88;21.05;;;5.10;92.10;;;;;;5054216;28;20067;-63
2021/03/09 06:26:34;;;;;;;30.30;21.85;;;5.10;91.90;;;;;;5049939;28;20124;-63
2021/03/09 06:29:12;;;;;;;31.13;21.58;;;5.10;92.20;;;;;;5040218;28;20055;-63
2021/03/09 06:31:39;;;;;;;28.13;22.17;;;5.10;92.20;;;;;;5051129;28;20056;-63
2021/03/09 06:34:26;;;;;;;28.75;22.00;;;5.20;92.50;;;;;;5033286;28;20048;-63
2021/03/09 06:37:04;;;;;;;29.67;20.85;;;5.10;92.40;;;;;;5051036;28;20072;-63
2021/03/09 06:39:51;;;;;;;32.70;21.52;;;5.20;92.10;;;;;;5050944;28;20044;-64
2021/03/09 06:42:36;;;;;;;30.67;23.33;;;5.20;91.90;;;;;;5050068;28;20076;-64
2021/03/09 06:45:10;;;;;;;37.55;23.40;;;5.30;92.40;;;;;;5050408;28;20051;-64
2021/03/09 06:47:43;;;;;;;31.27;22.70;;;5.30;92.40;;;;;;5047016;28;20637;-64
2021/03/09 06:50:19;;;;;;;34.75;23.30;;;5.30;92.30;;;;;;5058747;28;20033;-64
2021/03/09 06:53:00;;;;;;;30.77;22.48;;;5.30;92.30;;;;;;5048504;28;20401;-64
2021/03/09 06:55:34;;;;;;;41.83;23.70;;;5.30;92.40;;;;;;5049353;28;20486;-64
2021/03/09 06:58:04;;;;;;;39.42;24.77;;;5.30;92.40;;;;;;5040317;28;20041;-64
2021/03/09 07:00:30;;;;;;;38.92;24.05;;;5.30;92.40;;;;;;5050113;28;20065;-64
2021/03/09 07:02:56;;;;;;;39.65;24.27;;;5.30;92.10;;;;;;5050001;28;20049;-64
2021/03/09 07:05:21;;;;;;;31.25;23.52;;;5.40;91.80;;;;;;5050634;28;20090;-64
2021/03/09 07:07:47;;;;;;;33.38;24.58;;;5.40;91.80;;;;;;5052561;28;20064;-64
2021/03/09 07:10:18;;;;;;;43.97;25.17;;;5.40;92.20;;;;;;5050841;28;20036;-64
2021/03/09 07:12:46;;;;;;;48.00;26.20;;;5.40;92.60;;;;;;5051408;28;20108;-64
2021/03/09 07:15:14;;;;;;;49.30;26.58;;;5.40;92.60;;;;;;5050753;28;20510;-64
2021/03/09 07:17:40;;;;;;;44.92;26.38;;;5.40;92.70;;;;;;5050269;28;20041;-64
2021/03/09 07:20:14;;;;;;;51.97;24.52;;;5.50;92.90;;;;;;5049434;28;20063;-64
2021/03/09 07:22:40;;;;;;;88.50;28.15;;;5.50;92.70;;;;;;5049617;28;20097;-64
2021/03/09 07:25:14;;;;;;;66.57;30.30;;;5.50;93.00;;;;;;5054334;28;20041;-64
2021/03/09 07:28:00;;;;;;;58.10;28.48;;;5.40;93.20;;;;;;5059139;28;20040;-64
2021/03/09 07:30:27;;;;;;;64.88;28.42;;;5.50;93.00;;;;;;5046771;28;20056;-64
2021/03/09 07:32:55;;;;;;;78.63;29.05;;;5.50;93.00;;;;;;5050311;28;20707;-64
2021/03/09 07:35:22;;;;;;;104.00;30.83;;;5.60;92.70;;;;;;5051007;28;20507;-64
2021/03/09 07:37:53;;;;;;;226.85;37.13;;;5.60;93.50;;;;;;5051167;28;20033;-64
2021/03/09 07:40:30;;;;;;;108.97;30.88;;;5.60;93.60;;;;;;5061516;28;20111;-64
2021/03/09 07:42:56;;;;;;;81.60;30.98;;;5.60;93.60;;;;;;5062524;28;20124;-65
2021/03/09 07:45:28;;;;;;;96.90;32.88;;;5.70;93.50;;;;;;5057852;28;20076;-64
2021/03/09 07:48:05;;;;;;;94.68;32.15;;;5.60;93.70;;;;;;5049075;28;20040;-64
2021/03/09 07:50:36;;;;;;;72.28;30.52;;;5.70;93.60;;;;;;5053399;28;20041;-62
2021/03/09 07:53:05;;;;;;;142.38;33.47;;;5.80;94.00;;;;;;5061550;28;20060;-62
2021/03/09 07:55:32;;;;;;;354.70;42.42;;;5.90;93.60;;;;;;5053970;28;20041;-62
2021/03/09 07:58:26;;;;;;;191.68;37.55;;;5.80;93.80;;;;;;5052716;28;20040;-62
2021/03/09 08:00:58;;;;;;;108.03;33.55;;;5.80;94.00;;;;;;5057136;28;20082;-62
2021/03/09 08:03:41;;;;;;;138.32;35.45;;;5.90;94.10;;;;;;5049546;28;20041;-62
2021/03/09 08:06:07;;;;;;;;;;;5.90;94.00;;;;;;5052750;28;20149;-62
2021/03/09 08:08:42;;;;;;;94.63;33.38;;;5.90;94.00;;;;;;5052919;28;19928;-62
2021/03/09 08:11:14;;;;;;;113.35;34.90;;;6.00;93.70;;;;;;5046050;28;20181;-62
2021/03/09 08:13:41;;;;;;;137.57;36.37;;;6.00;93.60;;;;;;5054801;28;20040;-62
2021/03/09 08:16:19;;;;;;;142.40;37.40;;;5.90;93.90;;;;;;5058655;28;20033;-62
2021/03/09 08:18:45;;;;;;;82.80;32.42;;;5.90;93.90;;;;;;5067786;28;20050;-62
2021/03/09 08:21:11;;;;;;;72.57;29.92;;;6.00;92.30;;;;;;5036136;28;20037;-62
2021/03/09 08:23:36;;;;;;;165.25;39.97;;;6.10;91.70;;;;;;5053754;28;20550;-62
2021/03/09 08:26:06;;;;;;;95.45;35.97;;;6.10;93.80;;;;;;5053845;28;20044;-62
2021/03/09 08:28:33;;;;;;;206.75;41.50;;;6.10;92.50;;;;;;5054435;28;20033;-62
2021/03/09 08:31:11;;;;;;;233.32;41.38;;;6.10;93.20;;;;;;5054702;28;20112;-62
2021/03/09 08:33:40;;;;;;;91.45;34.03;;;6.00;94.10;;;;;;5054472;28;20041;-62
2021/03/09 08:36:24;;;;;;;78.78;30.58;;;6.00;93.10;;;;;;5061211;28;20125;-62
2021/03/09 08:39:05;;;;;;;116.65;38.47;;;6.10;92.40;;;;;;5070003;28;20745;-62
2021/03/09 08:44:23;;;;;;;68.87;35.03;;;6.10;93.50;;;;;;5034424;28;20052;-62
2021/03/09 08:46:55;;;;;;;68.07;32.00;;;6.10;92.90;;;;;;5051556;28;20064;-62
2021/03/09 08:49:36;;;;;;;72.93;34.05;;;6.20;92.90;;;;;;5052299;28;20521;-62
2021/03/09 08:52:17;;;;;;;66.50;34.00;;;6.20;93.70;;;;;;5058807;28;20040;-62
2021/03/09 08:54:47;;;;;;;58.97;32.35;;;6.30;93.00;;;;;;5058628;28;20033;-62
2021/03/09 08:57:19;;;;;;;63.50;32.20;;;6.30;92.40;;;;;;5052943;28;20037;-63
2021/03/09 08:59:49;;;;;;;76.22;34.95;;;6.40;91.70;;;;;;5053422;28;20048;-62
2021/03/09 09:02:16;;;;;;;55.88;31.52;;;6.40;93.10;;;;;;5052939;28;20471;-62
2021/03/09 09:04:53;;;;;;;44.17;29.35;;;6.50;91.80;;;;;;5059251;28;20044;-62
2021/03/09 09:07:23;;;;;;;49.55;29.50;;;6.50;90.80;;;;;;5062810;28;20454;-63
2021/03/09 09:09:51;;;;;;;44.65;28.83;;;6.50;92.30;;;;;;5044327;28;20039;-63
2021/03/09 09:12:25;;;;;;;42.47;28.40;;;6.50;92.00;;;;;;5055359;28;20044;-62
2021/03/09 09:15:12;;;;;;;41.22;27.50;;;6.60;92.00;;;;;;5047912;28;20339;-62
2021/03/09 09:17:39;;;;;;;44.10;31.65;;;6.60;91.70;;;;;;5049859;28;20648;-62
2021/03/09 09:20:10;;;;;;;36.05;26.13;;;6.60;92.10;;;;;;5053883;28;20029;-62
2021/03/09 09:22:36;;;;;;;43.53;28.70;;;6.50;92.20;;;;;;5053385;28;20041;-62
2021/03/09 09:25:05;;;;;;;45.03;29.40;;;6.30;92.30;;;;;;5051908;28;20475;-62
2021/03/09 09:27:53;;;;;;;46.15;29.55;;;6.30;92.70;;;;;;5049034;28;20033;-62
2021/03/09 09:30:39;;;;;;;39.67;27.27;;;6.50;92.50;;;;;;5033611;28;20065;-62
2021/03/09 09:33:05;;;;;;;38.72;27.17;;;6.60;92.40;;;;;;5048285;28;20045;-63
2021/03/09 09:35:31;;;;;;;40.90;28.52;;;6.50;92.20;;;;;;5052656;28;20041;-63
2021/03/09 09:38:10;;;;;;;36.55;25.98;;;6.30;92.20;;;;;;5053109;28;20033;-63
2021/03/09 09:40:40;;;;;;;36.22;25.33;;;6.40;92.20;;;;;;5034413;28;20472;-63
2021/03/09 09:43:10;;;;;;;38.63;26.67;;;6.60;91.60;;;;;;5052913;28;20025;-63
2021/03/09 09:46:03;;;;;;;37.42;26.10;;;6.50;91.80;;;;;;5053052;28;20048;-62
2021/03/09 09:48:31;;;;;;;34.38;25.30;;;6.50;91.80;;;;;;5051071;28;20068;-63
2021/03/09 09:51:00;;;;;;;36.42;25.88;;;6.60;91.60;;;;;;5052345;28;20040;-62
2021/03/09 09:53:33;;;;;;;41.35;27.65;;;6.50;91.90;;;;;;5052550;28;20093;-63
2021/03/09 09:56:32;;;;;;;39.33;26.48;;;6.50;92.30;;;;;;5052838;28;20040;-62
2021/03/09 09:59:00;;;;;;;34.38;24.45;;;6.60;92.10;;;;;;5047586;28;20068;-62
2021/03/09 10:01:32;;;;;;;34.92;24.73;;;6.60;91.40;;;;;;5055040;28;20037;-62
2021/03/09 10:04:03;;;;;;;33.40;24.83;;;6.30;91.70;;;;;;5067642;28;20113;-62
2021/03/09 10:06:38;;;;;;;38.10;26.70;;;6.20;91.30;;;;;;5056051;28;20037;-62
2021/03/09 10:09:19;;;;;;;37.15;25.30;;;6.10;92.10;;;;;;5059083;28;20156;-62
2021/03/09 10:11:47;;;;;;;37.78;25.38;;;6.20;92.20;;;;;;5049392;28;20418;-62
2021/03/09 10:14:14;;;;;;;39.45;24.58;;;6.30;91.90;;;;;;5051766;28;20577;-63
2021/03/09 10:16:42;;;;;;;37.30;25.83;;;6.30;91.90;;;;;;5052340;28;20450;-62
2021/03/09 10:19:09;;;;;;;42.03;27.13;;;6.20;92.00;;;;;;5051784;28;20039;-62
2021/03/09 10:21:36;;;;;;;42.95;25.17;;;6.00;92.30;;;;;;5048316;28;20425;-62
2021/03/09 10:24:03;;;;;;;39.63;26.98;;;6.00;92.40;;;;;;5048538;28;20037;-62
2021/03/09 10:26:35;;;;;;;40.58;26.77;;;5.80;92.30;;;;;;5051717;28;20136;-62
2021/03/09 10:29:11;;;;;;;40.63;26.52;;;5.80;92.80;;;;;;5051457;28;20041;-62
2021/03/09 10:31:51;;;;;;;46.03;26.48;;;5.70;92.90;;;;;;5051304;28;20029;-62
2021/03/09 10:34:19;;;;;;;41.67;25.77;;;5.70;93.30;;;;;;5033620;28;20458;-62
2021/03/09 10:36:53;;;;;;;35.10;25.38;;;5.80;92.70;;;;;;5050156;28;20041;-62
2021/03/09 10:39:21;;;;;;;40.20;25.02;;;5.70;92.90;;;;;;5052262;28;20159;-62
2021/03/09 10:41:46;;;;;;;41.55;26.67;;;5.80;93.00;;;;;;5051095;28;20052;-62
2021/03/09 10:44:44;;;;;;;38.60;24.25;;;5.80;92.70;;;;;;5051163;28;20037;-62
2021/03/09 10:47:12;;;;;;;35.53;23.98;;;5.80;92.40;;;;;;4997254;28;20064;-62
2021/03/09 10:49:37;;;;;;;34.22;23.90;;;5.80;92.80;;;;;;5040557;28;20124;-62
2021/03/09 10:52:07;;;;;;;32.08;23.25;;;5.80;92.60;;;;;;5051117;28;20263;-62
2021/03/09 10:54:35;;;;;;;31.45;23.23;;;5.90;92.30;;;;;;5051495;28;20040;-62
2021/03/09 10:57:03;;;;;;;25.88;19.95;;;6.00;92.40;;;;;;5034918;28;20490;-62
2021/03/09 10:59:29;;;;;;;26.90;20.02;;;5.90;91.50;;;;;;5049031;28;20551;-62
2021/03/09 11:01:54;;;;;;;26.92;21.30;;;5.80;91.90;;;;;;5051364;28;20041;-62
2021/03/09 11:04:20;;;;;;;26.27;20.80;;;5.80;91.80;;;;;;5057274;28;20044;-62
2021/03/09 11:06:46;;;;;;;25.00;21.27;;;5.70;91.80;;;;;;5051985;28;20394;-62
2021/03/09 11:09:32;;;;;;;27.08;21.23;;;5.70;91.50;;;;;;5058103;28;20040;-62
2021/03/09 11:11:57;;;;;;;29.08;22.13;;;5.60;91.90;;;;;;5055398;28;20132;-62
2021/03/09 11:14:23;;;;;;;30.67;22.35;;;5.60;92.00;;;;;;5050410;28;20037;-62
2021/03/09 11:16:49;;;;;;;33.00;23.75;;;5.70;92.20;;;;;;5049597;28;20063;-62
2021/03/09 11:19:14;;;;;;;31.85;23.13;;;5.60;91.80;;;;;;5044030;28;20064;-62
2021/03/09 11:21:40;;;;;;;29.70;22.48;;;5.60;92.30;;;;;;5050334;28;20029;-63
2021/03/09 11:24:07;;;;;;;32.97;24.27;;;5.70;91.70;;;;;;5032501;28;20120;-63
2021/03/09 11:26:32;;;;;;;34.17;23.83;;;5.70;92.10;;;;;;5049863;28;20116;-64
2021/03/09 11:28:58;;;;;;;31.85;23.75;;;5.70;91.80;;;;;;5047504;28;20108;-68
2021/03/09 11:31:24;;;;;;;33.13;24.33;;;5.70;91.50;;;;;;5049501;28;20103;-62
2021/03/09 11:33:50;;;;;;;33.72;24.90;;;5.60;91.80;;;;;;5047581;28;20048;-62
2021/03/09 11:36:16;;;;;;;37.63;25.48;;;5.50;91.80;;;;;;5047229;28;20052;-62
2021/03/09 11:38:43;;;;;;;36.15;25.40;;;5.50;91.90;;;;;;5048608;28;20037;-62
2021/03/09 11:41:10;;;;;;;34.22;23.73;;;5.60;92.00;;;;;;5047907;28;20060;-62
2021/03/09 11:43:37;;;;;;;31.80;23.55;;;5.70;91.50;;;;;;5047998;28;20040;-62
2021/03/09 11:46:03;;;;;;;29.27;21.58;;;5.80;91.50;;;;;;5048727;28;20037;-62
2021/03/09 11:48:29;;;;;;;27.33;20.75;;;5.80;91.10;;;;;;5048955;28;20512;-62
2021/03/09 11:50:55;;;;;;;28.92;21.83;;;5.90;90.80;;;;;;5047042;28;20093;-62
2021/03/09 11:53:20;;;;;;;32.13;23.33;;;5.60;90.80;;;;;;5029368;28;20831;-62
2021/03/09 11:55:46;;;;;;;35.05;24.33;;;5.70;91.30;;;;;;5048592;28;20033;-62
2021/03/09 11:58:12;;;;;;;31.80;23.52;;;5.80;91.50;;;;;;5048137;28;20098;-62
2021/03/09 12:00:37;;;;;;;35.08;24.50;;;5.80;90.80;;;;;;5049039;28;20025;-62
2021/03/09 12:03:04;;;;;;;30.73;22.67;;;5.80;91.20;;;;;;5048765;28;20135;-62
2021/03/09 12:05:30;;;;;;;32.00;23.40;;;5.80;90.50;;;;;;5054887;28;20029;-62
2021/03/09 12:07:56;;;;;;;27.40;21.25;;;5.80;90.60;;;;;;5051083;28;20418;-62
2021/03/09 12:10:22;;;;;;;27.00;21.13;;;5.90;90.50;;;;;;5046187;28;20041;-62
2021/03/09 12:12:47;;;;;;;29.02;21.65;;;5.80;90.20;;;;;;5048417;28;20075;-62
2021/03/09 12:15:13;;;;;;;24.27;19.15;;;5.80;90.90;;;;;;5034230;28;20048;-62
2021/03/09 12:17:40;;;;;;;23.88;19.20;;;5.60;90.00;;;;;;5048717;28;20090;-62
2021/03/09 12:20:06;;;;;;;25.33;20.75;;;5.60;90.40;;;;;;5050564;28;20453;-62
2021/03/09 12:22:32;;;;;;;26.40;21.10;;;5.60;90.50;;;;;;5048610;28;20040;-62
2021/03/09 12:24:58;;;;;;;26.95;20.27;;;5.80;91.00;;;;;;5067529;28;20036;-62
2021/03/09 12:27:23;;;;;;;24.65;20.17;;;5.70;90.40;;;;;;5060299;28;20041;-62
2021/03/09 12:29:49;;;;;;;23.08;19.33;;;5.60;90.30;;;;;;5051268;28;20437;-62
2021/03/09 12:32:15;;;;;;;22.65;19.67;;;5.70;90.50;;;;;;5051152;28;20055;-62
2021/03/09 12:34:40;;;;;;;22.23;19.20;;;5.60;89.60;;;;;;5060753;28;20033;-62
2021/03/09 12:37:06;;;;;;;22.27;18.45;;;5.50;90.30;;;;;;5066878;28;20041;-62
2021/03/09 12:39:32;;;;;;;22.92;19.35;;;5.50;90.40;;;;;;5053882;28;20128;-62
2021/03/09 12:41:59;;;;;;;23.70;19.00;;;5.50;90.80;;;;;;5053647;28;20051;-62
2021/03/09 12:44:25;;;;;;;21.42;19.13;;;5.50;90.50;;;;;;5052561;28;20089;-62
2021/03/09 12:46:51;;;;;;;20.48;17.55;;;5.50;90.20;;;;;;5054563;28;20037;-62
2021/03/09 12:49:17;;;;;;;20.50;18.02;;;5.50;90.20;;;;;;5052555;28;20037;-62
2021/03/09 12:51:42;;;;;;;21.38;17.02;;;5.60;90.30;;;;;;5052574;28;20433;-62